createdAt,value
2018-11-28T00:02:01.942Z,186.43
2018-11-28T00:06:09.402Z,187.53
2018-11-28T00:10:16.928Z,193.40
2018-11-28T00:14:25.017Z,215.03
2018-11-28T00:18:31.635Z,189.03
2018-11-28T00:22:38.252Z,200.70
2018-11-28T00:26:44.713Z,198.80
2018-11-28T00:30:53.024Z,188.03
2018-11-28T00:34:59.511Z,198.67
2018-11-28T00:39:08.377Z,187.27
2018-11-28T00:43:15.239Z,185.20
2018-11-28T00:47:22.901Z,172.40
2018-11-28T00:51:29.428Z,175.23
2018-11-28T00:55:36.116Z,184.00
2018-11-28T00:59:42.578Z,166.93
2018-11-28T01:03:50.052Z,175.97
2018-11-28T01:07:57.734Z,162.77
2018-11-28T01:12:04.465Z,156.83
2018-11-28T01:16:10.976Z,152.03
2018-11-28T01:20:24.613Z,176.93
2018-11-28T01:24:31.182Z,162.83
2018-11-28T01:28:37.923Z,170.20
2018-11-28T01:32:44.693Z,156.10
2018-11-28T01:36:51.871Z,149.77
2018-11-28T01:40:59.305Z,147.30
2018-11-28T01:45:05.975Z,129.00
2018-11-28T01:49:12.456Z,129.53
2018-11-28T01:53:20.140Z,123.97
2018-11-28T01:57:26.560Z,124.00
2018-11-28T02:01:33.139Z,117.63
2018-11-28T02:05:39.649Z,121.37
2018-11-28T02:09:47.419Z,132.40
2018-11-28T02:13:53.945Z,138.93
2018-11-28T02:18:02.931Z,135.23
2018-11-28T02:22:09.895Z,141.90
2018-11-28T02:26:16.837Z,151.43
2018-11-28T02:30:23.335Z,160.30
2018-11-28T02:34:30.848Z,146.40
2018-11-28T02:38:37.616Z,154.30
2018-11-28T02:42:47.806Z,139.20
2018-11-28T02:46:54.319Z,148.33
2018-11-28T02:51:02.709Z,140.93
2018-11-28T02:55:13.356Z,142.10
2018-11-28T02:59:21.075Z,145.90
2018-11-28T03:03:27.502Z,140.23
2018-11-28T03:07:34.225Z,124.30
2018-11-28T03:11:43.118Z,127.53
2018-11-28T03:15:52.076Z,104.83
2018-11-28T03:19:58.557Z,121.60
2018-11-28T03:24:08.429Z,133.70
2018-11-28T03:28:17.807Z,123.97
2018-11-28T03:32:24.984Z,122.57
2018-11-28T03:36:31.460Z,118.13
2018-11-28T03:40:38.080Z,112.63
2018-11-28T03:44:44.684Z,110.13
2018-11-28T03:48:52.607Z,120.83
2018-11-28T03:52:59.104Z,143.57
2018-11-28T03:57:05.669Z,127.10
2018-11-28T04:01:12.170Z,138.37
2018-11-28T04:05:18.944Z,135.87
2018-11-28T04:09:25.608Z,131.90
2018-11-28T04:13:32.179Z,143.63
2018-11-28T04:17:40.044Z,137.33
2018-11-28T04:21:46.489Z,126.93
2018-11-28T04:25:53.100Z,136.10
2018-11-28T04:29:59.665Z,131.93
2018-11-28T04:34:06.476Z,121.27
2018-11-28T04:38:17.126Z,127.87
2018-11-28T04:42:23.653Z,128.73
2018-11-28T04:46:30.510Z,137.40
2018-11-28T04:50:37.892Z,128.77
2018-11-28T04:54:46.232Z,127.90
2018-11-28T04:58:52.731Z,126.07
2018-11-28T05:03:01.153Z,116.70
2018-11-28T05:07:29.616Z,126.27
2018-11-28T05:11:36.746Z,130.53
2018-11-28T05:15:43.275Z,114.43
2018-11-28T05:19:49.936Z,131.30
2018-11-28T05:23:59.163Z,122.83
2018-11-28T05:28:07.442Z,124.37
2018-11-28T05:32:15.773Z,130.93
2018-11-28T05:36:22.293Z,133.87
2018-11-28T05:40:29.418Z,138.37
2018-11-28T05:44:36.508Z,130.43
2018-11-28T05:48:44.236Z,146.17
2018-11-28T05:52:53.442Z,142.87
2018-11-28T05:56:59.934Z,128.10
2018-11-28T06:01:09.415Z,129.53
2018-11-28T06:05:16.729Z,124.83
2018-11-28T06:09:23.306Z,134.50
2018-11-28T06:13:29.785Z,134.13
2018-11-28T06:17:38.608Z,129.90
2018-11-28T06:21:45.157Z,127.73
2018-11-28T06:25:51.857Z,133.97
2018-11-28T06:29:58.363Z,117.67
2018-11-28T06:34:06.960Z,114.93
2018-11-28T06:38:13.588Z,93.40
2018-11-28T06:42:22.912Z,98.40
2018-11-28T06:46:29.409Z,97.60
2018-11-28T06:50:36.976Z,97.50
2018-11-28T06:54:43.394Z,92.30
2018-11-28T06:58:50.182Z,86.07
2018-11-28T07:02:56.809Z,81.87
2018-11-28T07:07:04.183Z,94.33
2018-11-28T07:11:19.953Z,65.53
2018-11-28T07:15:27.155Z,77.87
2018-11-28T07:19:33.636Z,76.17
2018-11-28T07:23:44.705Z,74.17
2018-11-28T07:27:53.351Z,62.33
2018-11-28T07:31:59.959Z,74.37
2018-11-28T07:36:06.442Z,55.43
2018-11-28T07:40:28.281Z,62.30
2018-11-28T07:44:34.785Z,61.00
2018-11-28T07:48:41.373Z,62.67
2018-11-28T07:52:47.883Z,64.07
2018-11-28T07:56:55.040Z,62.43
2018-11-28T08:01:01.494Z,55.03
2018-11-28T08:05:09.858Z,51.77
2018-11-28T08:13:26.375Z,46.67
2018-11-28T08:17:32.513Z,41.13
2018-11-28T08:21:39.477Z,43.80
2018-11-28T08:25:45.994Z,36.90
2018-11-28T08:29:52.690Z,37.83
2018-11-28T08:33:59.254Z,36.63
2018-11-28T08:38:07.687Z,44.90
2018-11-28T08:42:16.761Z,38.33
2018-11-28T08:46:24.626Z,46.90
2018-11-28T08:50:33.662Z,41.03
2018-11-28T08:54:38.716Z,37.63
2018-11-28T08:58:45.251Z,33.97
2018-11-28T09:02:56.539Z,36.50
2018-11-28T09:07:03.187Z,39.23
2018-11-28T09:11:09.958Z,45.07
2018-11-28T09:15:31.609Z,31.40
2018-11-28T09:19:39.680Z,42.10
2018-11-28T09:23:46.361Z,41.73
2018-11-28T09:28:02.571Z,54.73
2018-11-28T09:32:09.044Z,46.40
2018-11-28T09:36:17.046Z,37.07
2018-11-28T09:40:24.609Z,21.93
2018-11-28T09:44:35.659Z,40.47
2018-11-28T09:48:42.152Z,39.50
2018-11-28T09:52:50.215Z,38.67
2018-11-28T09:56:56.537Z,37.63
2018-11-28T10:01:03.199Z,31.43
2018-11-28T10:05:11.193Z,34.33
2018-11-28T10:09:18.707Z,27.40
2018-11-28T10:13:25.178Z,30.43
2018-11-28T10:17:31.934Z,24.00
2018-11-28T10:21:39.248Z,41.37
2018-11-28T10:25:47.828Z,40.17
2018-11-28T10:29:54.295Z,42.40
2018-11-28T10:34:00.848Z,58.67
2018-11-28T10:38:08.044Z,25.97
2018-11-28T10:42:15.153Z,43.67
2018-11-28T10:46:21.633Z,47.10
2018-11-28T10:50:30.352Z,39.03
2018-11-28T10:54:36.804Z,38.57
2018-11-28T10:58:44.432Z,40.13
2018-11-28T11:03:08.062Z,35.57
2018-11-28T11:07:31.826Z,36.40
2018-11-28T11:12:02.853Z,31.93
2018-11-28T11:16:10.628Z,33.27
2018-11-28T11:20:19.656Z,34.90
2018-11-28T11:24:27.710Z,28.07
2018-11-28T11:28:34.284Z,34.97
2018-11-28T11:32:41.715Z,34.33
2018-11-28T11:36:48.182Z,29.40
2018-11-28T11:40:56.229Z,40.70
2018-11-28T11:45:04.887Z,26.40
2018-11-28T11:49:11.740Z,26.20
2018-11-28T11:53:19.583Z,30.20
2018-11-28T11:57:26.543Z,21.07
2018-11-28T12:01:33.028Z,20.77
2018-11-28T12:05:43.537Z,20.60
2018-11-28T12:09:50.855Z,23.83
2018-11-28T12:13:57.400Z,22.83
2018-11-28T12:18:03.921Z,26.67
2018-11-28T12:22:11.416Z,26.73
2018-11-28T12:26:17.934Z,27.30
2018-11-28T12:30:24.654Z,28.33
2018-11-28T12:34:31.156Z,25.50
2018-11-28T12:38:39.512Z,27.33
2018-11-28T12:42:50.573Z,27.73
2018-11-28T12:47:00.279Z,27.27
2018-11-28T12:51:07.088Z,22.77
2018-11-28T12:55:15.592Z,29.00
2018-11-28T12:59:22.116Z,35.50
2018-11-28T13:03:28.962Z,26.50
2018-11-28T13:07:35.403Z,26.50
2018-11-28T13:11:43.193Z,21.03
2018-11-28T13:15:49.691Z,21.23
2018-11-28T13:19:58.998Z,23.70
2018-11-28T13:24:03.716Z,32.80
2018-11-28T13:28:11.206Z,42.97
2018-11-28T13:32:17.822Z,35.47
2018-11-28T13:36:24.540Z,34.10
2018-11-28T13:40:30.972Z,29.13
2018-11-28T13:44:37.659Z,34.33
2018-11-28T13:48:44.095Z,41.30
2018-11-28T13:52:53.274Z,42.03
2018-11-28T13:57:03.886Z,33.07
2018-11-28T14:01:09.659Z,41.93
2018-11-28T14:05:16.280Z,33.33
2018-11-28T14:09:23.065Z,32.80
2018-11-28T14:13:29.527Z,33.40
2018-11-28T14:17:36.794Z,28.40
2018-11-28T14:21:43.310Z,34.83
2018-11-28T14:25:52.758Z,35.23
2018-11-28T14:29:57.574Z,27.37
2018-11-28T14:34:04.424Z,28.37
2018-11-28T14:38:10.992Z,29.80
2018-11-28T14:42:25.111Z,29.93
2018-11-28T14:46:31.664Z,35.03
2018-11-28T14:50:39.266Z,34.50
2018-11-28T14:54:46.573Z,37.23
2018-11-28T14:58:56.261Z,34.10
2018-11-28T15:03:18.913Z,30.67
2018-11-28T15:07:27.156Z,23.40
2018-11-28T15:11:33.743Z,28.00
2018-11-28T15:15:40.623Z,27.57
2018-11-28T15:19:47.145Z,39.20
2018-11-28T15:23:54.474Z,40.80
2018-11-28T15:28:02.618Z,26.60
2018-11-28T15:32:09.629Z,38.63
2018-11-28T15:36:17.931Z,41.70
2018-11-28T15:40:25.687Z,38.87
2018-11-28T15:44:32.092Z,34.27
2018-11-28T15:48:39.798Z,27.93
2018-11-28T15:52:46.383Z,26.97
2018-11-28T15:56:54.938Z,42.13
2018-11-28T16:01:01.529Z,40.03
2018-11-28T16:05:11.494Z,46.13
2018-11-28T16:09:35.768Z,41.27
2018-11-28T16:13:43.541Z,52.07
2018-11-28T16:17:50.107Z,64.77
2018-11-28T16:21:57.092Z,56.70
2018-11-28T16:26:04.053Z,46.13
2018-11-28T16:30:13.760Z,39.63
2018-11-28T16:34:23.164Z,50.80
2018-11-28T16:38:30.023Z,60.57
2018-11-28T16:42:36.938Z,50.27
2018-11-28T16:46:43.726Z,52.93
2018-11-28T16:50:50.408Z,50.57
2018-11-28T16:54:57.279Z,56.27
2018-11-28T16:59:04.635Z,60.97
2018-11-28T17:03:11.421Z,63.30
2018-11-28T17:07:18.056Z,68.13
2018-11-28T17:11:25.144Z,62.73
2018-11-28T17:15:34.501Z,62.90
2018-11-28T17:19:41.448Z,76.33
2018-11-28T17:23:47.875Z,72.53
2018-11-28T17:27:54.672Z,57.80
2018-11-28T17:32:01.479Z,61.27
2018-11-28T17:36:12.696Z,63.80
2018-11-28T17:40:22.678Z,59.73
2018-11-28T17:44:30.204Z,60.03
2018-11-28T17:48:36.810Z,50.10
2018-11-28T17:52:46.593Z,61.20
2018-11-28T17:56:53.073Z,50.83
2018-11-28T18:00:59.954Z,59.43
2018-11-28T18:05:10.030Z,54.80
2018-11-28T18:09:17.784Z,47.17
2018-11-28T18:13:24.352Z,44.93
2018-11-28T18:17:32.023Z,49.73
2018-11-28T18:21:38.777Z,59.63
2018-11-28T18:25:46.924Z,48.87
2018-11-28T18:29:53.474Z,52.50
2018-11-28T18:34:00.427Z,44.87
2018-11-28T18:38:08.798Z,48.03
2018-11-28T18:42:16.849Z,41.90
2018-11-28T18:46:30.842Z,40.33
2018-11-28T18:50:40.003Z,53.60
2018-11-28T18:54:46.882Z,44.30
2018-11-28T18:58:54.274Z,51.93
2018-11-28T19:03:00.829Z,65.37
2018-11-28T19:07:08.082Z,52.80
2018-11-28T19:11:19.975Z,51.27
2018-11-28T19:15:33.760Z,56.73
2018-11-28T19:19:41.592Z,28.20
2018-11-28T19:23:48.316Z,55.80
2018-11-28T19:27:55.472Z,58.93
2018-11-28T19:32:03.279Z,55.20
2018-11-28T19:36:09.871Z,63.03
2018-11-28T19:40:54.360Z,59.53
2018-11-28T19:45:00.845Z,40.70
2018-11-28T19:49:08.522Z,50.20
2018-11-28T19:53:15.890Z,62.93
2018-11-28T19:57:26.382Z,64.07
2018-11-28T20:01:36.115Z,59.37
2018-11-28T20:05:46.573Z,58.83
2018-11-28T20:09:58.336Z,63.23
2018-11-28T20:14:05.493Z,57.40
2018-11-28T20:18:12.765Z,49.37
2018-11-28T20:22:26.973Z,41.23
2018-11-28T20:26:33.962Z,46.50
2018-11-28T20:30:49.947Z,40.23
2018-11-28T20:34:56.551Z,38.30
2018-11-28T20:39:04.850Z,42.77
2018-11-28T20:43:12.504Z,43.70
2018-11-28T20:47:20.121Z,41.97
2018-11-28T20:51:26.659Z,46.23
2018-11-28T20:55:34.961Z,48.37
2018-11-28T20:59:41.775Z,30.97
2018-11-28T21:03:52.201Z,37.43
2018-11-28T21:07:59.513Z,35.40
2018-11-28T21:12:08.746Z,46.13
2018-11-28T21:16:15.391Z,42.00
2018-11-28T21:20:24.657Z,50.57
2018-11-28T21:24:31.049Z,40.87
2018-11-28T21:28:38.180Z,51.10
2018-11-28T21:32:50.527Z,52.17
2018-11-28T21:36:58.198Z,48.10
2018-11-28T21:41:04.926Z,50.40
2018-11-28T21:45:15.605Z,56.60
2018-11-28T21:49:22.111Z,53.27
2018-11-28T21:53:28.825Z,62.93
2018-11-28T21:57:35.665Z,47.40
2018-11-28T22:01:42.979Z,42.50
2018-11-28T22:05:49.473Z,56.73
2018-11-28T22:09:56.589Z,48.20
2018-11-28T22:14:03.053Z,46.10
2018-11-28T22:18:10.745Z,46.93
2018-11-28T22:22:17.212Z,32.93
2018-11-28T22:26:26.583Z,35.53
2018-11-28T22:30:34.444Z,26.47
2018-11-28T22:34:42.597Z,31.43
2018-11-28T22:38:51.513Z,34.07
2018-11-28T22:43:00.360Z,27.30
2018-11-28T22:47:07.016Z,28.40
2018-11-28T22:51:15.970Z,29.17
2018-11-28T22:55:22.502Z,30.87
2018-11-28T22:59:32.167Z,24.77
2018-11-28T23:03:38.618Z,31.60
2018-11-28T23:07:46.087Z,32.00
2018-11-28T23:11:53.519Z,24.10
2018-11-28T23:16:00.193Z,28.33
2018-11-28T23:20:08.686Z,14.13
2018-11-28T23:24:16.213Z,26.60
2018-11-28T23:29:02.881Z,30.20
2018-11-28T23:33:10.267Z,28.43
2018-11-28T23:37:18.930Z,26.23
2018-11-28T23:41:29.645Z,19.07
2018-11-28T23:45:35.654Z,23.77
2018-11-28T23:49:42.314Z,18.93
2018-11-28T23:53:51.241Z,26.20
2018-11-28T23:57:58.204Z,25.47
